Time;durP1;ratioP1;P1;durP2;ratioP2;P2;SDS_P1;SDS_P2;PMS_P1;PMS_P2;Temp;Humidity;BMP_temperature;BMP_pressure;BME280_temperature;BME280_humidity;BME280_pressure;Samples;Min_cycle;Max_cycle;Signal;HPM_P1;HPM_P2
2021/10/14 04:40:55;;;;;;;11.93;7.53;;;;;;;2.91;77.59;100803.25;5005027;28;106102;-73
2021/10/14 04:43:22;;;;;;;12.07;7.30;;;;;;;2.98;77.64;100792.19;5005219;28;106204;-68
2021/10/14 04:45:49;;;;;;;13.52;7.13;;;;;;;3.06;77.64;100796.91;5004989;28;106165;-70
2021/10/14 04:48:14;;;;;;;14.27;7.65;;;;;;;3.15;78.06;100798.06;5004343;28;106020;-71
2021/10/14 04:50:39;;;;;;;13.00;7.60;;;;;;;3.22;78.03;100788.78;5004300;28;106305;-71
2021/10/14 04:53:05;;;;;;;16.20;8.23;;;;;;;3.32;78.04;100797.75;5005398;28;106384;-72
2021/10/14 04:55:30;;;;;;;15.00;8.52;;;;;;;3.42;77.87;100797.06;5005717;28;105821;-72
2021/10/14 04:57:55;;;;;;;15.93;7.72;;;;;;;3.50;77.83;100789.44;5004740;28;111344;-71
2021/10/14 05:00:21;;;;;;;18.48;8.40;;;;;;;3.59;77.90;100793.25;5005023;28;106015;-71
2021/10/14 05:02:46;;;;;;;18.63;7.85;;;;;;;3.67;77.73;100794.34;5006102;28;106014;-71
2021/10/14 05:05:11;;;;;;;18.48;7.95;;;;;;;3.76;77.49;100798.13;5005415;28;106319;-70
2021/10/14 05:07:37;;;;;;;16.75;9.32;;;;;;;3.82;77.51;100804.75;5004723;28;105696;-72
2021/10/14 05:10:03;;;;;;;16.63;9.48;;;;;;;3.82;77.59;100799.47;5004973;28;106155;-72
2021/10/14 05:12:28;;;;;;;18.42;8.90;;;;;;;3.83;77.76;100799.38;5004677;28;105857;-72
2021/10/14 05:14:53;;;;;;;18.08;8.73;;;;;;;3.89;77.68;100800.72;5004576;28;106254;-70
2021/10/14 05:17:19;;;;;;;14.70;8.70;;;;;;;3.95;77.33;100794.16;5004492;28;105992;-68
2021/10/14 05:19:44;;;;;;;16.65;8.82;;;;;;;3.97;77.55;100803.63;5004048;28;112893;-69
2021/10/14 05:22:09;;;;;;;16.75;9.65;;;;;;;4.00;77.43;100808.66;5005271;28;106111;-69
2021/10/14 05:24:35;;;;;;;17.67;8.88;;;;;;;4.01;77.15;100802.44;5004484;28;106184;-71
2021/10/14 05:27:00;;;;;;;14.15;8.00;;;;;;;4.03;77.07;100795.28;5004193;28;106052;-70
2021/10/14 05:29:26;;;;;;;16.15;8.13;;;;;;;4.06;77.49;100802.97;5004119;28;106019;-70
2021/10/14 05:31:51;;;;;;;16.77;8.60;;;;;;;4.05;77.36;100803.06;5003768;28;106224;-70
2021/10/14 05:34:16;;;;;;;12.65;7.50;;;;;;;4.04;76.83;100806.66;5001913;28;106273;-71
2021/10/14 05:36:42;;;;;;;14.95;7.55;;;;;;;4.05;77.09;100800.44;5001692;28;106704;-69
2021/10/14 05:39:07;;;;;;;18.35;8.18;;;;;;;4.09;77.67;100801.91;5001874;28;106542;-70
2021/10/14 05:41:32;;;;;;;15.43;7.65;;;;;;;4.11;77.22;100799.97;5005063;28;106204;-70
2021/10/14 05:43:57;;;;;;;13.02;7.80;;;;;;;4.16;77.30;100797.00;5004267;28;106182;-67
2021/10/14 05:46:23;;;;;;;16.33;8.57;;;;;;;4.23;77.67;100793.78;5003916;28;106086;-71
2021/10/14 05:48:52;;;;;;;16.38;8.52;;;;;;;4.24;76.97;100789.38;5003799;28;105905;-70
2021/10/14 05:51:17;;;;;;;18.55;8.27;;;;;;;4.23;77.11;100790.31;4997120;28;105865;-69
2021/10/14 05:53:42;;;;;;;18.08;9.10;;;;;;;4.24;77.37;100792.00;4991433;28;106149;-71
2021/10/14 05:56:08;;;;;;;13.07;7.70;;;;;;;4.27;77.10;100793.56;4990696;28;105941;-69
2021/10/14 05:58:33;;;;;;;13.80;7.15;;;;;;;4.27;77.23;100791.78;4989103;28;105914;-69
2021/10/14 06:00:58;;;;;;;15.75;7.18;;;;;;;4.24;77.44;100792.00;4991216;28;105976;-68
2021/10/14 06:03:24;;;;;;;12.57;6.80;;;;;;;4.24;76.99;100784.09;4991143;28;105875;-69
2021/10/14 06:05:49;;;;;;;10.57;5.65;;;;;;;4.29;77.37;100797.78;4990916;28;106605;-70
2021/10/14 06:08:14;;;;;;;13.10;6.78;;;;;;;4.32;77.20;100800.19;4990543;28;105806;-69
2021/10/14 06:10:40;;;;;;;20.10;6.80;;;;;;;4.33;77.43;100799.25;4991308;28;105854;-72
2021/10/14 06:13:06;;;;;;;13.43;6.40;;;;;;;4.37;77.21;100790.13;4990612;28;106429;-71
2021/10/14 06:15:32;;;;;;;11.73;6.72;;;;;;;4.39;77.41;100797.94;4990556;28;106874;-72
2021/10/14 06:17:58;;;;;;;14.30;6.78;;;;;;;4.40;77.39;100805.72;4990140;28;106186;-72
2021/10/14 06:20:23;;;;;;;13.25;6.43;;;;;;;4.44;77.00;100803.69;4991182;28;106254;-72
2021/10/14 06:22:49;;;;;;;12.93;6.65;;;;;;;4.48;77.37;100805.13;4990321;28;106212;-72
2021/10/14 06:25:14;;;;;;;13.35;7.22;;;;;;;4.49;76.91;100814.75;4990413;28;105949;-71
2021/10/14 06:27:39;;;;;;;12.88;5.60;;;;;;;4.54;77.32;100809.97;4990143;28;106448;-73
2021/10/14 06:30:05;;;;;;;15.43;7.70;;;;;;;4.58;77.57;100803.50;4990924;28;105924;-71
2021/10/14 06:32:31;;;;;;;10.18;6.43;;;;;;;4.66;77.01;100800.28;4989976;28;105985;-71
2021/10/14 06:34:56;;;;;;;11.60;6.18;;;;;;;4.73;77.01;100796.22;4989712;28;106083;-69
2021/10/14 06:37:21;;;;;;;10.35;5.22;;;;;;;4.75;77.01;100804.84;4989923;28;105966;-70
2021/10/14 06:39:47;;;;;;;13.20;6.22;;;;;;;4.78;76.96;100802.94;4990186;28;106203;-70
2021/10/14 06:42:12;;;;;;;11.07;5.95;;;;;;;4.78;77.01;100805.56;4988559;28;105906;-71
2021/10/14 06:44:37;;;;;;;11.25;6.22;;;;;;;4.82;77.05;100801.75;4989431;28;105986;-72
2021/10/14 06:47:03;;;;;;;11.75;6.80;;;;;;;4.85;76.70;100796.22;4989888;28;105795;-72
2021/10/14 06:49:28;;;;;;;10.80;5.82;;;;;;;4.94;76.70;100805.25;4990520;28;105872;-72
2021/10/14 06:51:55;;;;;;;10.18;5.80;;;;;;;5.11;77.12;100804.75;4990082;28;106226;-70
2021/10/14 06:54:21;;;;;;;11.77;6.90;;;;;;;5.23;76.72;100803.78;4988116;28;106067;-70
2021/10/14 06:56:46;;;;;;;12.15;5.55;;;;;;;5.28;76.30;100806.09;4989141;28;105894;-67
2021/10/14 06:59:12;;;;;;;12.88;5.70;;;;;;;5.39;76.90;100797.31;4990061;28;106614;-71
2021/10/14 07:01:37;;;;;;;11.40;5.82;;;;;;;5.46;76.27;100797.69;4989553;28;106279;-68
2021/10/14 07:04:03;;;;;;;9.82;5.68;;;;;;;5.53;76.41;100806.78;4988263;28;106103;-70
2021/10/14 07:06:28;;;;;;;15.13;5.50;;;;;;;5.57;76.09;100803.75;4989474;28;106020;-69
2021/10/14 07:08:53;;;;;;;15.70;5.57;;;;;;;5.61;75.95;100795.63;4990150;28;105972;-72
2021/10/14 07:11:19;;;;;;;13.48;5.25;;;;;;;5.69;76.32;100803.78;4989424;28;105948;-71
2021/10/14 07:13:45;;;;;;;12.23;5.82;;;;;;;5.80;76.16;100802.91;4989226;28;105988;-71
2021/10/14 07:16:11;;;;;;;12.05;6.15;;;;;;;5.91;76.55;100802.88;4989226;28;105929;-71
2021/10/14 07:18:37;;;;;;;11.88;5.28;;;;;;;6.05;76.28;100807.88;4989934;28;106076;-72
2021/10/14 07:21:02;;;;;;;16.13;5.10;;;;;;;6.14;76.03;100806.31;4989435;28;106217;-70
2021/10/14 07:23:28;;;;;;;11.93;5.38;;;;;;;6.20;75.97;100807.59;4989352;28;106032;-69
2021/10/14 07:25:54;;;;;;;11.75;4.95;;;;;;;6.21;75.39;100804.00;4989335;28;105842;-70
2021/10/14 07:28:19;;;;;;;13.00;5.85;;;;;;;6.15;74.99;100801.84;4990155;28;105936;-70
2021/10/14 07:30:45;;;;;;;10.68;6.03;;;;;;;6.14;75.55;100805.44;4989258;28;105734;-72
2021/10/14 07:33:10;;;;;;;11.13;5.65;;;;;;;6.16;75.31;100804.34;4988712;28;106279;-70
2021/10/14 07:35:38;;;;;;;13.38;5.22;;;;;;;6.22;75.71;100805.66;4988838;28;106359;-71
2021/10/14 07:38:10;;;;;;;12.13;4.75;;;;;;;6.30;75.52;100787.38;4989057;28;105841;-70
2021/10/14 07:40:39;;;;;;;16.70;5.68;;;;;;;6.36;75.67;100797.41;4987058;28;105916;-70
2021/10/14 07:43:05;;;;;;;11.55;5.30;;;;;;;6.44;75.49;100800.25;4988546;28;106806;-70
2021/10/14 07:45:30;;;;;;;10.07;5.28;;;;;;;6.52;75.27;100793.47;4987941;28;105923;-71
2021/10/14 07:47:56;;;;;;;13.70;5.32;;;;;;;6.56;75.04;100803.69;4988802;28;106283;-69
2021/10/14 07:50:21;;;;;;;12.40;5.22;;;;;;;6.64;74.95;100808.31;4988487;28;106262;-69
2021/10/14 07:52:46;;;;;;;10.55;5.20;;;;;;;6.75;74.67;100808.28;4986891;28;106287;-69
2021/10/14 07:55:12;;;;;;;12.80;6.15;;;;;;;6.86;75.01;100803.88;4988346;28;106212;-69
2021/10/14 07:57:37;;;;;;;14.52;5.68;;;;;;;6.92;74.80;100795.41;4990152;28;106034;-70
2021/10/14 08:00:05;;;;;;;10.73;5.22;;;;;;;6.93;74.23;100794.44;4999389;28;106067;-70
2021/10/14 08:02:31;;;;;;;9.32;5.50;;;;;;;6.98;74.59;100794.88;4994581;28;106777;-71
2021/10/14 08:04:56;;;;;;;9.98;6.05;;;;;;;7.03;74.78;100799.78;4994459;28;106336;-70
2021/10/14 08:07:22;;;;;;;7.57;4.90;;;;;;;7.05;73.97;100801.34;4989393;28;106131;-71
2021/10/14 08:09:48;;;;;;;13.77;5.45;;;;;;;7.08;73.74;100802.84;4988772;28;106227;-66
2021/10/14 08:12:14;;;;;;;9.65;5.35;;;;;;;7.10;74.31;100799.09;4987426;28;106291;-67
2021/10/14 08:14:39;;;;;;;12.40;5.38;;;;;;;7.18;74.24;100798.44;4987829;28;106156;-67
2021/10/14 08:17:05;;;;;;;8.50;5.05;;;;;;;7.32;74.10;100801.72;4989331;28;105914;-65
2021/10/14 08:19:30;;;;;;;8.18;4.78;;;;;;;7.49;74.00;100801.09;4988781;28;106129;-66
2021/10/14 08:21:55;;;;;;;7.47;4.32;;;;;;;7.62;73.42;100798.16;4987423;28;105970;-67
2021/10/14 08:24:21;;;;;;;9.93;5.30;;;;;;;7.79;74.02;100802.81;4988522;28;106288;-67
2021/10/14 08:26:47;;;;;;;9.43;5.32;;;;;;;7.91;72.69;100794.72;4989249;28;105996;-68
2021/10/14 08:29:12;;;;;;;8.90;4.45;;;;;;;8.00;73.47;100807.16;4988780;28;106222;-69
2021/10/14 08:31:37;;;;;;;9.48;4.65;;;;;;;8.09;73.13;100801.03;4988542;28;106569;-69
2021/10/14 08:34:03;;;;;;;10.98;5.18;;;;;;;8.11;72.13;100793.75;4988564;28;105842;-68
2021/10/14 08:36:28;;;;;;;8.82;4.72;;;;;;;8.17;72.38;100796.84;4988966;28;105833;-69
2021/10/14 08:38:53;;;;;;;8.32;5.38;;;;;;;8.27;72.45;100789.72;4987524;28;106212;-70
2021/10/14 08:41:19;;;;;;;10.95;4.90;;;;;;;8.41;72.14;100785.81;4987185;28;105927;-69
2021/10/14 08:43:46;;;;;;;12.55;6.03;;;;;;;8.55;71.96;100784.56;4987165;28;106096;-69
2021/10/14 08:46:11;;;;;;;9.98;5.25;;;;;;;8.75;71.98;100783.53;4987892;28;105809;-71
2021/10/14 08:48:37;;;;;;;11.50;4.47;;;;;;;8.86;71.42;100789.63;4987578;28;106219;-68
2021/10/14 08:51:02;;;;;;;9.07;4.82;;;;;;;8.85;71.02;100783.50;4987538;28;106657;-68
2021/10/14 08:53:28;;;;;;;9.75;5.40;;;;;;;8.99;70.84;100776.88;4987103;28;105978;-68
2021/10/14 08:55:53;;;;;;;10.77;5.50;;;;;;;9.32;70.93;100793.25;4987920;28;106107;-70
2021/10/14 08:58:19;;;;;;;10.60;4.72;;;;;;;9.74;71.13;100784.75;4987564;28;105942;-74
2021/10/14 09:01:05;;;;;;;9.27;4.78;;;;;;;9.99;69.12;100782.31;4987006;28;106110;-68
2021/10/14 09:03:30;;;;;;;10.90;5.97;;;;;;;9.92;68.55;100775.94;4986340;28;106351;-69
2021/10/14 09:05:57;;;;;;;9.25;5.47;;;;;;;9.78;67.93;100775.47;4987663;28;106180;-66
2021/10/14 09:08:42;;;;;;;9.85;5.80;;;;;;;9.71;68.53;100774.41;4987177;28;106251;-67
2021/10/14 09:11:10;;;;;;;12.82;5.68;;;;;;;9.72;68.52;100776.09;4985855;28;105963;-67
2021/10/14 09:13:37;;;;;;;9.32;5.60;;;;;;;9.72;67.96;100780.56;4983977;28;106025;-66
2021/10/14 09:16:18;;;;;;;15.15;6.05;;;;;;;9.80;68.47;100772.66;4987462;28;105993;-67
2021/10/14 09:18:43;;;;;;;14.65;6.13;;;;;;;9.85;67.93;100785.53;4984976;28;106698;-68
2021/10/14 09:21:20;;;;;;;11.90;5.80;;;;;;;9.88;67.86;100779.91;4986584;28;105962;-69
2021/10/14 09:23:45;;;;;;;12.20;5.85;;;;;;;9.94;67.97;100780.13;4986878;28;106122;-71
2021/10/14 09:26:10;;;;;;;11.40;6.13;;;;;;;10.01;68.00;100779.53;4989024;28;105763;-70
2021/10/14 09:28:36;;;;;;;13.00;6.47;;;;;;;10.04;67.88;100779.22;4990731;28;106131;-71
2021/10/14 09:31:07;;;;;;;11.90;6.53;;;;;;;10.15;67.21;100771.81;4990780;28;106066;-71
2021/10/14 09:33:45;;;;;;;9.52;5.88;;;;;;;10.29;67.38;100766.94;4990694;28;106174;-72
2021/10/14 09:36:28;;;;;;;9.30;5.68;;;;;;;10.55;67.27;100763.50;4991817;28;106085;-67
2021/10/14 09:38:57;;;;;;;10.20;5.63;;;;;;;10.70;66.67;100755.78;4970356;28;106193;-68
2021/10/14 09:41:24;;;;;;;10.63;6.53;;;;;;;10.76;66.64;100758.66;4972722;28;106601;-69
2021/10/14 09:43:53;;;;;;;12.43;6.60;;;;;;;10.81;65.89;100759.03;4988107;28;106232;-68
2021/10/14 09:46:34;;;;;;;9.82;5.72;;;;;;;10.85;65.61;100754.19;4989814;28;106010;-68
2021/10/14 09:49:00;;;;;;;11.43;5.82;;;;;;;10.90;65.75;100767.06;4989186;28;106454;-68
2021/10/14 09:51:25;;;;;;;9.43;5.32;;;;;;;10.94;65.25;100766.59;4988772;28;105989;-68
2021/10/14 09:53:50;;;;;;;14.65;5.22;;;;;;;10.95;64.63;100764.78;4988663;28;106012;-68
2021/10/14 09:56:16;;;;;;;11.32;5.60;;;;;;;10.95;64.81;100764.78;4989550;28;106156;-67
2021/10/14 09:58:41;;;;;;;9.75;5.72;;;;;;;10.98;64.75;100761.78;4989245;28;106060;-68
2021/10/14 10:01:07;;;;;;;9.32;5.63;;;;;;;11.12;65.40;100763.84;4988318;28;108630;-67
2021/10/14 10:03:33;;;;;;;10.32;5.25;;;;;;;11.25;65.04;100751.88;4988568;28;106036;-67
2021/10/14 10:06:01;;;;;;;11.40;5.95;;;;;;;11.35;63.97;100748.09;4989268;28;106749;-69
2021/10/14 10:08:32;;;;;;;8.82;5.75;;;;;;;11.37;64.08;100750.59;4988358;28;106225;-68
2021/10/14 10:11:03;;;;;;;11.20;5.60;;;;;;;11.41;63.24;100753.78;4985461;28;106206;-68
2021/10/14 10:13:32;;;;;;;10.30;6.53;;;;;;;11.29;63.68;100747.91;4972169;28;106452;-69
2021/10/14 10:16:12;;;;;;;11.15;6.53;;;;;;;11.27;63.44;100749.91;4969008;28;106023;-70
2021/10/14 10:18:40;;;;;;;13.63;6.03;;;;;;;11.20;63.86;100754.22;4968094;28;106150;-69
2021/10/14 10:21:09;;;;;;;13.18;5.93;;;;;;;11.25;63.79;100757.22;4968077;28;106396;-68
2021/10/14 10:23:51;;;;;;;10.00;6.10;;;;;;;11.38;64.53;100744.28;4971811;28;106449;-69
2021/10/14 10:29:28;;;;;;;10.65;5.70;;;;;;;11.64;63.25;100738.81;4987638;28;106589;-67
2021/10/14 10:31:55;;;;;;;9.18;5.65;;;;;;;11.52;62.22;100726.78;4987693;28;106898;-68
2021/10/14 10:37:23;;;;;;;11.40;5.72;;;;;;;11.57;62.95;100723.66;4986482;28;106548;-68
2021/10/14 10:39:55;;;;;;;12.45;6.32;;;;;;;11.78;63.63;100721.34;4987611;28;106127;-68
2021/10/14 10:42:27;;;;;;;10.40;5.43;;;;;;;12.01;63.11;100712.72;4987211;28;106076;-68
2021/10/14 10:44:53;;;;;;;13.60;5.90;;;;;;;12.05;62.67;100711.38;4987772;28;106382;-68
2021/10/14 10:47:57;;;;;;;10.15;4.43;;;;;;;12.02;62.03;100712.53;4988250;28;106116;-64
2021/10/14 10:50:22;;;;;;;9.75;6.28;;;;;;;11.91;62.68;100706.69;4986951;28;106244;-65
2021/10/14 10:53:01;;;;;;;10.30;4.85;;;;;;;11.71;60.98;100712.31;4987134;28;106098;-70
2021/10/14 10:55:26;;;;;;;8.18;5.03;;;;;;;11.45;61.48;100710.59;4987433;28;105948;-67
2021/10/14 10:57:54;;;;;;;7.35;5.05;;;;;;;11.27;62.41;100697.38;4988730;28;105992;-66
2021/10/14 11:00:22;;;;;;;7.78;5.22;;;;;;;11.14;62.14;100697.88;4987630;28;106098;-65
2021/10/14 11:03:13;;;;;;;8.35;4.82;;;;;;;11.08;62.52;100698.50;4987494;28;106107;-67
2021/10/14 11:05:58;;;;;;;8.02;4.55;;;;;;;11.03;62.29;100690.16;4978549;28;106166;-67
2021/10/14 11:08:30;;;;;;;9.77;5.03;;;;;;;11.18;63.55;100693.03;4971964;28;106087;-67
2021/10/14 11:10:58;;;;;;;8.20;3.80;;;;;;;11.28;62.97;100690.25;4969294;28;106160;-67
2021/10/14 11:13:26;;;;;;;7.13;3.92;;;;;;;11.35;62.15;100688.59;4968962;28;106061;-66
2021/10/14 11:15:54;;;;;;;6.93;3.67;;;;;;;11.34;61.91;100690.44;4969133;28;106261;-67
2021/10/14 11:18:21;;;;;;;11.02;4.82;;;;;;;11.38;62.58;100688.25;4969664;28;106394;-67
2021/10/14 11:21:06;;;;;;;5.63;3.17;;;;;;;11.30;62.08;100681.09;4967719;28;106904;-66
2021/10/14 11:23:36;;;;;;;6.05;2.65;;;;;;;11.20;62.52;100680.38;4969015;28;105972;-67
2021/10/14 11:26:10;;;;;;;4.88;3.25;;;;;;;11.07;62.06;100675.50;4968315;28;106024;-66
2021/10/14 11:29:17;;;;;;;5.60;3.50;;;;;;;10.98;62.30;100679.97;4969545;28;105781;-66
2021/10/14 11:31:58;;;;;;;7.25;3.17;;;;;;;10.88;62.96;100671.28;4968831;28;106246;-67
2021/10/14 11:34:27;;;;;;;8.30;3.20;;;;;;;10.90;62.83;100671.94;4968705;28;106076;-67
2021/10/14 11:37:05;;;;;;;5.22;3.28;;;;;;;11.00;63.25;100669.13;4968994;28;106523;-68
2021/10/14 11:39:39;;;;;;;5.35;3.17;;;;;;;10.97;62.41;100666.81;4968960;28;106125;-68
2021/10/14 11:42:12;;;;;;;7.70;3.40;;;;;;;10.89;62.46;100672.09;4968997;28;106229;-67
2021/10/14 11:44:44;;;;;;;4.45;2.70;;;;;;;10.88;62.44;100673.94;4968921;28;105821;-68
2021/10/14 11:47:14;;;;;;;7.90;3.15;;;;;;;10.83;62.50;100674.41;4968282;28;106155;-67
2021/10/14 11:49:40;;;;;;;3.95;2.67;;;;;;;10.78;62.47;100666.06;4968648;28;105924;-66
2021/10/14 11:52:08;;;;;;;5.63;2.95;;;;;;;10.79;62.83;100672.22;4968506;28;106123;-67
2021/10/14 11:54:37;;;;;;;10.45;3.30;;;;;;;10.81;63.11;100667.56;4968000;28;106720;-66
2021/10/14 11:57:05;;;;;;;5.43;2.90;;;;;;;10.81;62.68;100660.41;4968281;28;105884;-67
2021/10/14 11:59:32;;;;;;;5.45;3.20;;;;;;;10.83;62.66;100647.75;4969071;28;105805;-67
2021/10/14 12:02:05;;;;;;;4.97;3.15;;;;;;;10.89;62.73;100648.13;4968232;28;106169;-68
2021/10/14 12:04:35;;;;;;;6.78;3.42;;;;;;;10.91;62.62;100641.63;4968615;28;107048;-69
2021/10/14 12:07:01;;;;;;;7.18;3.72;;;;;;;10.96;62.76;100635.81;4965981;28;106442;-69
2021/10/14 12:09:27;;;;;;;9.18;4.63;;;;;;;10.99;62.58;100646.16;4966941;28;106218;-67
2021/10/14 12:12:00;;;;;;;5.70;3.42;;;;;;;10.92;62.29;100650.44;4966289;28;106153;-67
2021/10/14 12:14:27;;;;;;;6.40;3.80;;;;;;;10.84;62.13;100651.28;4965881;28;106158;-68
2021/10/14 12:17:28;;;;;;;8.73;3.80;;;;;;;10.76;62.48;100630.75;4965715;28;106213;-68
2021/10/14 12:19:54;;;;;;;6.05;3.78;;;;;;;10.71;62.53;100633.06;4966375;28;106677;-68
2021/10/14 12:22:21;;;;;;;6.40;3.40;;;;;;;10.69;62.58;100632.38;4964928;28;106768;-68
2021/10/14 12:25:01;;;;;;;6.50;3.67;;;;;;;10.63;62.47;100625.03;4965469;28;106484;-69
2021/10/14 12:27:47;;;;;;;7.57;4.65;;;;;;;10.53;62.21;100627.00;4967840;28;106104;-69
2021/10/14 12:30:20;;;;;;;4.88;3.40;;;;;;;10.47;61.94;100631.97;4968750;28;106621;-68
2021/10/14 12:32:45;;;;;;;6.55;3.65;;;;;;;10.39;62.33;100629.25;4968086;28;106203;-69
2021/10/14 12:35:13;;;;;;;7.65;4.28;;;;;;;10.32;62.06;100630.84;4967884;28;106035;-69
2021/10/14 12:37:38;;;;;;;6.90;4.10;;;;;;;10.28;62.44;100632.16;4967759;28;106175;-68
2021/10/14 12:40:20;;;;;;;11.00;4.80;;;;;;;10.29;62.78;100633.81;4967863;28;105930;-67
2021/10/14 12:43:11;;;;;;;5.47;3.35;;;;;;;10.25;62.41;100627.13;4967319;28;106178;-66
2021/10/14 12:53:55;;;;;;;4.30;3.50;;;;;;;10.16;62.35;100620.94;4964748;28;105923;-70
2021/10/14 12:56:20;;;;;;;8.43;3.95;;;;;;;10.17;62.63;100614.63;4967530;28;106027;-68
2021/10/14 12:58:47;;;;;;;8.05;3.70;;;;;;;10.21;62.16;100612.47;4967726;28;106151;-66
2021/10/14 13:01:18;;;;;;;5.35;3.97;;;;;;;10.26;62.41;100618.16;4969555;28;106008;-66
2021/10/14 13:03:45;;;;;;;5.35;3.17;;;;;;;10.33;61.83;100608.53;4971483;28;105827;-66
2021/10/14 13:06:11;;;;;;;5.38;3.45;;;;;;;10.40;62.13;100609.63;4970682;28;106032;-66
2021/10/14 13:08:41;;;;;;;8.20;3.67;;;;;;;10.53;61.96;100619.00;4970636;28;106057;-67
2021/10/14 13:44:40;;;;;;;7.40;4.50;;;;;;;9.36;63.20;100589.88;5023760;28;106116;-67
2021/10/14 13:47:06;;;;;;;5.50;4.20;;;;;;;9.35;63.93;100588.22;5024622;27;105980;-67
2021/10/14 13:49:31;;;;;;;7.93;4.20;;;;;;;9.34;64.17;100583.88;5023529;27;106914;-66
2021/10/14 13:51:56;;;;;;;6.22;3.85;;;;;;;9.35;64.28;100574.94;5023579;27;106271;-70
2021/10/14 13:54:21;;;;;;;9.43;4.25;;;;;;;9.39;64.30;100573.63;5005232;28;106294;-69
2021/10/14 13:56:47;;;;;;;7.47;4.63;;;;;;;9.42;64.46;100569.84;5004948;28;106102;-68
2021/10/14 13:59:12;;;;;;;4.40;3.30;;;;;;;9.44;64.65;100565.19;5024994;27;106587;-67
2021/10/14 14:01:37;;;;;;;7.28;4.10;;;;;;;9.43;64.26;100567.03;5024534;27;106453;-67
2021/10/14 14:04:03;;;;;;;10.45;3.65;;;;;;;9.44;65.03;100559.88;5025021;27;106006;-66
2021/10/14 14:06:32;;;;;;;7.32;4.30;;;;;;;9.47;64.69;100562.22;5012716;28;106074;-68
2021/10/14 14:08:59;;;;;;;7.40;4.57;;;;;;;9.50;64.56;100553.94;5012210;27;106330;-69
2021/10/14 14:11:24;;;;;;;8.10;3.47;;;;;;;9.53;64.75;100553.63;5004099;28;106197;-68
2021/10/14 14:13:50;;;;;;;6.70;4.55;;;;;;;9.54;65.10;100554.47;5009287;28;107190;-67
2021/10/14 14:16:15;;;;;;;7.47;4.95;;;;;;;9.57;64.74;100554.19;5004032;28;106040;-68
2021/10/14 14:18:41;;;;;;;7.82;4.75;;;;;;;9.60;64.88;100559.19;5021129;28;106608;-69
2021/10/14 14:21:07;;;;;;;6.65;3.92;;;;;;;9.65;64.90;100564.88;5008051;28;106056;-71
2021/10/14 14:23:33;;;;;;;6.90;4.03;;;;;;;9.66;64.81;100553.22;5016280;27;106058;-70
2021/10/14 14:25:58;;;;;;;5.72;3.88;;;;;;;9.66;64.76;100555.88;5012424;28;106039;-68
2021/10/14 14:28:24;;;;;;;7.13;4.05;;;;;;;9.66;65.02;100553.22;5014218;27;105851;-70
2021/10/14 14:30:49;;;;;;;8.27;4.60;;;;;;;9.67;65.21;100554.91;5013555;28;106007;-67
2021/10/14 14:33:15;;;;;;;7.32;3.88;;;;;;;9.69;64.95;100558.25;5021091;27;105974;-70
2021/10/14 14:35:40;;;;;;;5.28;4.05;;;;;;;9.69;65.30;100560.91;5012939;27;105920;-66
2021/10/14 14:38:06;;;;;;;7.88;4.57;;;;;;;9.68;65.15;100561.03;5003741;28;106613;-68
2021/10/14 14:40:32;;;;;;;7.55;4.50;;;;;;;9.69;65.54;100558.25;5002598;28;106273;-68
2021/10/14 14:42:57;;;;;;;5.68;3.47;;;;;;;9.69;64.94;100566.22;5001893;28;106615;-69
2021/10/14 14:45:22;;;;;;;6.78;4.43;;;;;;;9.69;65.28;100552.06;5003405;28;105942;-68
2021/10/14 14:47:51;;;;;;;6.03;4.05;;;;;;;9.68;65.22;100559.22;5002676;28;106368;-69
2021/10/14 14:52:48;;;;;;;6.22;3.90;;;;;;;9.70;65.12;100549.25;4998402;28;106112;-68
2021/10/14 14:55:15;;;;;;;6.82;3.75;;;;;;;9.70;65.20;100559.91;4994563;28;105968;-65
2021/10/14 14:57:40;;;;;;;5.85;3.78;;;;;;;9.70;65.28;100554.56;4989424;28;106158;-66
2021/10/14 15:00:06;;;;;;;8.48;3.45;;;;;;;9.71;65.17;100544.78;4989292;28;106497;-69
2021/10/14 15:02:31;;;;;;;5.63;3.40;;;;;;;9.71;65.29;100550.13;4988780;28;106776;-72
2021/10/14 15:04:57;;;;;;;7.78;4.07;;;;;;;9.68;65.07;100545.09;4989959;28;105967;-69
2021/10/14 15:07:22;;;;;;;6.40;3.47;;;;;;;9.65;65.19;100551.56;4989330;28;106091;-68
2021/10/14 15:09:48;;;;;;;5.47;3.80;;;;;;;9.64;65.24;100555.22;4989028;28;106380;-69
2021/10/14 15:12:13;;;;;;;6.63;4.40;;;;;;;9.61;65.43;100552.88;4988974;28;105994;-69
2021/10/14 15:14:38;;;;;;;7.60;4.38;;;;;;;9.62;65.32;100551.88;4989460;28;106124;-68
2021/10/14 15:17:03;;;;;;;8.15;4.03;;;;;;;9.64;65.13;100541.91;4989457;28;106350;-69
2021/10/14 15:19:29;;;;;;;8.80;4.40;;;;;;;9.65;65.52;100546.25;4988688;28;106094;-69
2021/10/14 15:21:54;;;;;;;7.20;4.35;;;;;;;9.63;65.28;100542.91;4962276;28;106026;-69
2021/10/14 15:24:20;;;;;;;8.10;4.78;;;;;;;9.60;65.24;100548.53;4989496;28;106064;-69
2021/10/14 15:26:45;;;;;;;8.75;5.00;;;;;;;9.57;65.38;100552.34;4989044;28;106424;-69
2021/10/14 15:29:10;;;;;;;7.28;5.00;;;;;;;9.55;65.35;100546.31;4988667;28;106519;-68
2021/10/14 15:31:36;;;;;;;8.18;5.22;;;;;;;9.54;65.62;100543.81;4988481;28;106516;-68
2021/10/14 15:34:04;;;;;;;8.43;5.43;;;;;;;9.51;65.60;100550.28;4990465;28;105965;-69
2021/10/14 15:36:29;;;;;;;8.23;4.97;;;;;;;9.49;65.56;100544.28;4990618;28;105884;-67
2021/10/14 15:38:55;;;;;;;10.90;5.85;;;;;;;9.49;66.41;100547.78;4989214;28;106796;-69
2021/10/14 15:41:21;;;;;;;8.80;5.53;;;;;;;9.47;65.70;100549.78;4989678;28;106276;-69
2021/10/14 15:43:47;;;;;;;10.98;5.55;;;;;;;9.48;66.20;100554.09;4989694;28;106830;-70
2021/10/14 15:46:15;;;;;;;8.00;4.82;;;;;;;9.48;65.85;100553.25;4989671;28;105928;-69
2021/10/14 15:48:41;;;;;;;10.63;5.85;;;;;;;9.44;65.91;100552.72;4988332;28;106025;-69
2021/10/14 15:51:07;;;;;;;9.32;5.47;;;;;;;9.44;65.91;100552.72;4989177;28;106457;-68
2021/10/14 15:53:33;;;;;;;8.02;5.50;;;;;;;9.43;66.03;100552.88;4991171;28;105988;-67
2021/10/14 15:55:59;;;;;;;8.25;5.78;;;;;;;9.41;66.18;100560.19;4990025;28;106382;-69
2021/10/14 15:58:25;;;;;;;7.95;5.40;;;;;;;9.40;66.35;100548.69;4989680;28;105992;-69
2021/10/14 16:00:51;;;;;;;9.60;6.28;;;;;;;9.39;66.29;100547.06;4989540;28;106012;-69
2021/10/14 16:03:16;;;;;;;10.10;5.97;;;;;;;9.40;66.29;100547.88;4990445;28;105976;-69
2021/10/14 16:05:43;;;;;;;10.02;6.70;;;;;;;9.37;66.30;100545.53;4989660;28;106184;-68
2021/10/14 16:08:09;;;;;;;11.05;6.07;;;;;;;9.34;66.51;100551.16;4988785;28;105910;-69
2021/10/14 16:10:36;;;;;;;8.43;5.68;;;;;;;9.31;66.66;100558.44;4989342;28;105886;-69
2021/10/14 16:13:03;;;;;;;9.73;6.53;;;;;;;9.28;66.83;100547.25;4989770;28;105988;-70
2021/10/14 16:15:29;;;;;;;9.43;6.47;;;;;;;9.24;66.91;100556.53;4989613;28;106126;-70
2021/10/14 16:17:56;;;;;;;9.75;5.70;;;;;;;9.22;66.96;100553.22;4988899;28;106066;-68
2021/10/14 16:20:22;;;;;;;11.10;6.93;;;;;;;9.22;66.64;100561.19;4988817;28;105889;-68
2021/10/14 16:22:47;;;;;;;11.73;6.18;;;;;;;9.22;66.85;100556.69;4940341;27;106202;-68
2021/10/14 16:25:12;;;;;;;10.20;5.97;;;;;;;9.20;66.84;100569.31;4989146;28;106676;-68
2021/10/14 16:27:42;;;;;;;9.23;5.93;;;;;;;9.20;66.84;100557.81;4996649;28;113669;-69
2021/10/14 16:30:10;;;;;;;9.35;5.55;;;;;;;9.17;67.09;100560.81;4998182;28;106377;-68
2021/10/14 16:33:30;;;;;;;9.32;5.65;;;;;;;9.13;67.48;100552.28;4994125;28;105961;-68
2021/10/14 16:35:22;;;;;;;10.20;6.05;;;;;;;9.11;67.29;100552.44;4997126;28;106578;-68
2021/10/14 16:37:47;;;;;;;10.93;6.53;;;;;;;9.12;67.48;100551.47;4989053;28;106389;-68
2021/10/14 16:40:13;;;;;;;10.05;6.53;;;;;;;9.09;67.62;100551.78;4991565;28;106744;-68
2021/10/14 16:42:43;;;;;;;9.88;6.05;;;;;;;9.05;67.55;100545.09;4993629;28;106467;-69
2021/10/14 16:45:11;;;;;;;11.27;6.07;;;;;;;9.03;67.98;100547.03;5006465;28;106094;-68
2021/10/14 16:47:39;;;;;;;9.90;6.30;;;;;;;9.00;68.04;100560.63;4993950;28;106085;-68
2021/10/14 16:50:07;;;;;;;10.25;6.38;;;;;;;8.97;67.83;100542.34;4988263;28;106198;-68
2021/10/14 16:52:33;;;;;;;11.02;6.50;;;;;;;8.94;68.11;100558.59;4991740;28;106190;-68